Time;durP1;ratioP1;P1;durP2;ratioP2;P2;SDS_P1;SDS_P2;PMS_P1;PMS_P2;Temp;Humidity;BMP_temperature;BMP_pressure;BME280_temperature;BME280_humidity;BME280_pressure;Samples;Min_cycle;Max_cycle;Signal;HPM_P1;HPM_P2
2022/11/25 00:01:29;;;;;;;15.68;4.07;;;1.40;99.90;;;;;;5097212;28;20472;-71
2022/11/25 00:03:57;;;;;;;15.85;3.72;;;1.50;99.90;;;;;;5097135;28;20043;-71
2022/11/25 00:06:27;;;;;;;19.55;4.68;;;1.60;99.90;;;;;;5097134;28;20103;-71
2022/11/25 00:09:05;;;;;;;17.33;4.63;;;1.60;99.90;;;;;;5097676;28;20354;-71
2022/11/25 00:11:37;;;;;;;15.38;4.90;;;1.70;99.90;;;;;;5096950;28;20035;-71
2022/11/25 00:14:06;;;;;;;16.23;3.70;;;1.70;99.90;;;;;;5096978;28;20020;-71
2022/11/25 00:16:34;;;;;;;16.77;3.95;;;1.70;99.90;;;;;;5096964;28;20023;-71
2022/11/25 00:19:02;;;;;;;12.60;3.90;;;1.70;99.90;;;;;;5096872;28;20430;-71
2022/11/25 00:21:32;;;;;;;14.82;4.45;;;1.80;99.90;;;;;;5097430;28;20028;-71
2022/11/25 00:24:01;;;;;;;16.83;4.25;;;1.80;99.90;;;;;;5097313;28;20059;-72
2022/11/25 00:26:33;;;;;;;16.10;3.78;;;1.90;99.90;;;;;;5096789;28;20024;-71
2022/11/25 00:29:03;;;;;;;16.02;3.40;;;1.90;99.90;;;;;;5079129;28;20118;-71
2022/11/25 00:31:34;;;;;;;12.95;3.25;;;1.90;99.90;;;;;;5096634;28;20062;-71
2022/11/25 00:34:02;;;;;;;21.90;4.93;;;1.90;99.90;;;;;;5097223;28;20020;-71
2022/11/25 00:36:32;;;;;;;13.07;4.00;;;2.00;99.90;;;;;;5096883;28;20020;-71
2022/11/25 00:39:12;;;;;;;15.13;3.63;;;2.00;99.90;;;;;;5096815;28;20095;-71
2022/11/25 00:44:35;;;;;;;18.30;4.55;;;2.10;99.90;;;;;;5082100;28;20081;-71
2022/11/25 00:47:11;;;;;;;16.88;3.85;;;2.10;99.90;;;;;;5096593;28;20032;-71
2022/11/25 00:49:40;;;;;;;14.65;3.67;;;2.20;99.90;;;;;;5097274;28;20116;-71
2022/11/25 00:52:08;;;;;;;12.63;4.03;;;2.20;99.90;;;;;;5096447;28;20028;-71
2022/11/25 00:54:35;;;;;;;22.38;3.92;;;2.30;99.90;;;;;;5096562;28;20027;-71
2022/11/25 00:57:03;;;;;;;13.55;3.90;;;2.30;99.90;;;;;;5075135;28;20349;-71
2022/11/25 00:59:31;;;;;;;11.65;3.80;;;2.30;99.90;;;;;;5076440;28;20412;-71
2022/11/25 01:01:58;;;;;;;17.98;3.97;;;2.30;99.90;;;;;;5076257;28;20025;-71
2022/11/25 01:04:25;;;;;;;18.27;4.63;;;2.30;99.90;;;;;;5076768;28;20051;-71
2022/11/25 01:06:55;;;;;;;8.85;3.08;;;2.30;99.90;;;;;;5076215;28;20069;-71
2022/11/25 01:09:23;;;;;;;16.10;4.03;;;2.30;99.90;;;;;;5076350;28;20029;-71
2022/11/25 01:11:51;;;;;;;19.70;3.30;;;2.20;99.90;;;;;;5076608;28;20163;-71
2022/11/25 01:14:19;;;;;;;16.88;3.17;;;2.20;99.90;;;;;;5076170;28;20017;-71
2022/11/25 01:16:48;;;;;;;8.40;3.05;;;2.10;99.90;;;;;;5076135;28;20052;-71
2022/11/25 01:19:16;;;;;;;10.63;3.20;;;2.10;99.90;;;;;;5075113;28;20021;-71
2022/11/25 01:21:43;;;;;;;15.07;3.78;;;2.10;99.90;;;;;;5076076;28;20044;-71
2022/11/25 01:24:13;;;;;;;10.43;3.42;;;2.10;99.90;;;;;;5076616;28;20024;-71
2022/11/25 01:26:41;;;;;;;13.85;2.90;;;2.10;99.90;;;;;;5079799;28;20432;-71
2022/11/25 01:29:16;;;;;;;15.35;3.72;;;2.10;99.90;;;;;;5080227;28;20106;-71
2022/11/25 01:31:44;;;;;;;13.02;3.22;;;2.10;99.90;;;;;;5079748;28;20099;-71
2022/11/25 01:34:18;;;;;;;24.13;3.13;;;2.00;99.90;;;;;;5079724;28;20027;-72
2022/11/25 01:36:46;;;;;;;12.98;2.97;;;2.10;99.90;;;;;;5079730;28;20086;-71
2022/11/25 01:39:20;;;;;;;9.90;4.07;;;2.10;99.90;;;;;;5079666;28;20048;-71
2022/11/25 01:41:49;;;;;;;14.20;3.00;;;2.20;99.90;;;;;;5079600;28;20028;-71
2022/11/25 01:44:21;;;;;;;13.43;3.25;;;2.20;99.90;;;;;;5080065;28;20023;-71
2022/11/25 01:47:11;;;;;;;16.95;3.10;;;2.20;99.90;;;;;;5078446;28;20375;-71
2022/11/25 01:49:45;;;;;;;13.98;4.03;;;2.20;99.90;;;;;;5079807;28;20020;-71
2022/11/25 01:52:26;;;;;;;15.75;4.65;;;2.20;99.90;;;;;;5078217;28;20031;-71
2022/11/25 01:55:11;;;;;;;15.20;3.25;;;2.20;99.90;;;;;;5079912;28;20355;-71
2022/11/25 01:58:02;;;;;;;11.65;2.50;;;2.10;99.90;;;;;;5094912;28;20052;-71
2022/11/25 02:00:30;;;;;;;20.92;2.60;;;2.10;99.90;;;;;;5099177;28;20343;-71
2022/11/25 02:02:58;;;;;;;12.73;2.60;;;2.20;99.90;;;;;;5099663;28;20023;-71
2022/11/25 02:06:03;;;;;;;17.80;3.30;;;2.30;99.90;;;;;;5099364;28;20024;-71
2022/11/25 02:08:32;;;;;;;28.90;3.78;;;2.40;99.90;;;;;;5099392;28;20099;-71
2022/11/25 02:11:03;;;;;;;20.33;3.35;;;2.50;99.90;;;;;;5099236;28;20320;-71
2022/11/25 02:13:31;;;;;;;14.48;2.67;;;2.60;99.90;;;;;;5099411;28;20024;-71
2022/11/25 02:15:59;;;;;;;17.08;3.10;;;2.70;99.90;;;;;;5099207;28;20130;-71
2022/11/25 02:18:27;;;;;;;13.52;3.40;;;2.80;99.90;;;;;;5099151;28;20416;-72
2022/11/25 02:20:55;;;;;;;17.60;3.50;;;2.90;99.90;;;;;;5099702;28;20017;-71
2022/11/25 02:23:32;;;;;;;13.90;3.78;;;3.00;99.90;;;;;;5081253;28;20020;-71
2022/11/25 02:25:59;;;;;;;15.05;2.88;;;3.00;99.90;;;;;;5081045;28;20115;-71
2022/11/25 02:28:31;;;;;;;18.38;3.25;;;3.00;99.90;;;;;;5099055;28;20020;-71
2022/11/25 02:30:59;;;;;;;18.00;3.20;;;3.10;99.90;;;;;;5099138;28;20102;-72
2022/11/25 02:33:27;;;;;;;21.55;4.25;;;3.10;99.90;;;;;;5099545;28;20036;-72
2022/11/25 02:36:01;;;;;;;18.80;4.38;;;3.10;99.90;;;;;;5099065;28;20415;-71
2022/11/25 02:38:32;;;;;;;19.20;3.55;;;3.20;99.90;;;;;;5080834;28;20324;-72
2022/11/25 02:41:25;;;;;;;25.48;3.38;;;3.30;99.90;;;;;;5099272;28;20404;-71
2022/11/25 02:43:52;;;;;;;12.68;3.38;;;3.40;99.90;;;;;;5098875;28;20073;-71
2022/11/25 02:46:23;;;;;;;14.32;4.53;;;3.50;99.90;;;;;;5098926;28;20012;-71
2022/11/25 02:48:52;;;;;;;27.10;4.80;;;3.70;99.90;;;;;;5098558;28;20020;-71
2022/11/25 02:51:21;;;;;;;13.45;2.78;;;3.70;99.90;;;;;;5099035;28;20024;-71
2022/11/25 02:53:49;;;;;;;11.05;2.75;;;3.70;99.90;;;;;;5098671;28;20016;-71
2022/11/25 02:56:18;;;;;;;14.55;3.90;;;3.70;99.90;;;;;;5098825;28;20065;-72
2022/11/25 02:58:45;;;;;;;21.27;3.42;;;3.70;99.90;;;;;;5080499;28;20058;-71
2022/11/25 03:01:12;;;;;;;14.82;2.85;;;3.70;99.90;;;;;;5098628;28;20103;-71
2022/11/25 03:03:40;;;;;;;11.20;2.65;;;3.70;99.90;;;;;;5098191;28;20073;-71
2022/11/25 03:06:08;;;;;;;13.20;2.28;;;3.60;99.90;;;;;;5080295;28;20031;-71
2022/11/25 03:08:37;;;;;;;17.00;2.45;;;3.60;99.90;;;;;;5098399;28;20020;-71
2022/11/25 03:11:04;;;;;;;9.55;2.70;;;3.60;99.90;;;;;;5098624;28;20027;-71
2022/11/25 03:13:32;;;;;;;21.35;2.92;;;3.60;99.90;;;;;;5098583;28;20099;-71
2022/11/25 03:16:00;;;;;;;14.68;3.05;;;3.50;99.90;;;;;;5098614;28;20307;-72
2022/11/25 03:18:28;;;;;;;8.45;2.50;;;3.50;99.90;;;;;;5098486;28;20016;-71
2022/11/25 03:20:56;;;;;;;15.07;2.58;;;3.50;99.90;;;;;;5097986;28;20028;-71
2022/11/25 03:23:23;;;;;;;14.20;3.30;;;3.50;99.90;;;;;;5080358;28;20115;-71
2022/11/25 03:25:50;;;;;;;16.85;3.97;;;3.50;99.90;;;;;;5097872;28;20023;-71
2022/11/25 03:28:18;;;;;;;9.63;2.40;;;3.50;99.90;;;;;;5098460;28;20088;-71
2022/11/25 03:30:46;;;;;;;16.45;2.60;;;3.60;99.90;;;;;;5097795;28;20028;-72
2022/11/25 03:33:13;;;;;;;9.57;2.35;;;3.70;99.90;;;;;;5097856;28;20020;-71
2022/11/25 03:35:41;;;;;;;11.15;2.97;;;3.80;99.90;;;;;;5097673;28;20042;-71
2022/11/25 03:38:08;;;;;;;13.88;2.53;;;3.90;99.90;;;;;;5098176;28;20062;-71
2022/11/25 03:40:35;;;;;;;17.80;3.33;;;3.90;99.90;;;;;;5097586;28;20078;-72
2022/11/25 03:43:03;;;;;;;14.23;3.35;;;4.00;99.90;;;;;;5097719;28;20324;-72
2022/11/25 03:45:30;;;;;;;6.15;2.88;;;4.10;99.90;;;;;;5097792;28;20446;-71
2022/11/25 03:47:58;;;;;;;17.02;3.25;;;4.20;99.90;;;;;;5097568;28;20066;-72
2022/11/25 03:50:25;;;;;;;10.40;2.65;;;4.20;99.90;;;;;;5079385;28;20114;-71
2022/11/25 03:52:52;;;;;;;11.68;2.33;;;4.20;99.90;;;;;;5098046;28;20099;-71
2022/11/25 03:55:20;;;;;;;8.43;2.67;;;4.20;99.90;;;;;;5097897;28;20020;-71
2022/11/25 03:57:47;;;;;;;17.73;3.70;;;4.20;99.90;;;;;;5097312;28;20520;-71
2022/11/25 04:00:14;;;;;;;7.43;2.72;;;4.30;99.90;;;;;;5097250;28;20024;-71
2022/11/25 04:02:42;;;;;;;22.15;3.55;;;4.30;99.90;;;;;;5097366;28;20020;-71
2022/11/25 04:05:10;;;;;;;14.70;3.45;;;4.30;99.90;;;;;;5097084;28;20020;-71
2022/11/25 04:07:37;;;;;;;16.10;3.72;;;4.30;99.90;;;;;;5079191;28;20115;-71
2022/11/25 04:10:05;;;;;;;10.70;2.70;;;4.30;99.90;;;;;;5097334;28;20028;-71
2022/11/25 04:12:48;;;;;;;12.90;3.55;;;4.30;99.90;;;;;;5097753;28;20050;-71
2022/11/25 04:15:16;;;;;;;17.58;3.10;;;4.40;99.90;;;;;;5097016;28;20024;-71
2022/11/25 04:17:43;;;;;;;14.30;3.30;;;4.30;99.90;;;;;;5079055;28;20094;-71
2022/11/25 04:20:12;;;;;;;12.30;3.20;;;4.40;99.90;;;;;;5096842;28;20061;-71
2022/11/25 04:22:40;;;;;;;14.02;2.75;;;4.40;99.90;;;;;;5097092;28;20028;-71
2022/11/25 04:25:08;;;;;;;9.52;3.40;;;4.40;99.90;;;;;;5078838;28;20039;-71
2022/11/25 04:27:35;;;;;;;10.63;3.22;;;4.40;99.90;;;;;;5096898;28;20024;-71
2022/11/25 04:30:04;;;;;;;15.70;3.05;;;4.30;99.90;;;;;;5096782;28;20024;-71
2022/11/25 04:32:31;;;;;;;10.68;4.32;;;4.30;99.90;;;;;;5096778;28;20103;-71
2022/11/25 04:34:58;;;;;;;15.82;4.10;;;4.20;99.90;;;;;;5097178;28;20074;-71
2022/11/25 04:37:25;;;;;;;15.25;3.72;;;4.10;99.90;;;;;;5096684;28;20027;-71
2022/11/25 04:39:53;;;;;;;15.07;4.43;;;4.10;99.90;;;;;;5097255;28;20020;-71
2022/11/25 04:42:38;;;;;;;17.63;3.42;;;4.00;99.90;;;;;;5096722;28;20028;-71
2022/11/25 04:45:15;;;;;;;11.50;3.60;;;3.90;99.90;;;;;;5096615;28;20482;-71
2022/11/25 04:47:44;;;;;;;14.75;4.15;;;3.90;99.90;;;;;;5078837;28;20028;-71
2022/11/25 04:50:22;;;;;;;13.18;3.35;;;3.90;99.90;;;;;;5078557;28;20078;-71
2022/11/25 04:52:49;;;;;;;17.45;4.00;;;3.90;99.90;;;;;;5097073;28;20023;-71
2022/11/25 04:55:16;;;;;;;18.98;4.65;;;3.90;99.90;;;;;;5096803;28;20044;-71
2022/11/25 04:57:43;;;;;;;25.63;7.55;;;3.90;99.90;;;;;;5096739;28;20048;-71
2022/11/25 05:00:11;;;;;;;23.55;7.60;;;4.00;99.90;;;;;;5099277;28;20099;-71
2022/11/25 05:02:38;;;;;;;16.80;4.00;;;4.00;99.90;;;;;;5100683;28;20093;-71
2022/11/25 05:05:07;;;;;;;13.80;4.22;;;4.00;99.90;;;;;;5100512;28;20027;-71
2022/11/25 05:07:34;;;;;;;16.33;4.00;;;4.00;99.90;;;;;;5101589;28;20346;-71
2022/11/25 05:10:01;;;;;;;16.88;4.60;;;4.00;99.90;;;;;;5100791;28;20462;-71
2022/11/25 05:12:29;;;;;;;18.35;4.30;;;4.00;99.90;;;;;;5100987;28;20404;-71
2022/11/25 05:14:57;;;;;;;13.27;4.05;;;4.10;99.90;;;;;;5082390;28;20420;-71
2022/11/25 05:17:27;;;;;;;22.42;8.30;;;4.10;99.90;;;;;;5082563;28;20024;-71
2022/11/25 05:19:55;;;;;;;17.17;5.80;;;4.10;99.90;;;;;;5100551;28;20013;-71
2022/11/25 05:22:25;;;;;;;21.88;9.32;;;4.20;99.90;;;;;;5101140;28;20320;-71
2022/11/25 05:24:52;;;;;;;26.55;10.02;;;4.20;99.90;;;;;;5100461;28;20031;-71
2022/11/25 05:27:20;;;;;;;20.45;6.28;;;4.20;99.90;;;;;;5100311;28;20016;-71
2022/11/25 05:29:49;;;;;;;13.10;3.83;;;4.20;99.90;;;;;;5082133;28;20030;-71
2022/11/25 05:32:16;;;;;;;17.83;6.40;;;4.30;99.90;;;;;;5082133;28;20112;-71
2022/11/25 05:34:44;;;;;;;18.73;7.03;;;4.30;99.90;;;;;;5099982;28;20466;-71
2022/11/25 05:37:13;;;;;;;20.23;5.05;;;4.30;99.90;;;;;;5100404;28;20361;-71
2022/11/25 05:39:40;;;;;;;17.88;7.10;;;4.40;99.90;;;;;;5100216;28;20020;-71
2022/11/25 05:42:07;;;;;;;19.85;6.68;;;4.50;99.90;;;;;;5081976;28;20032;-71
2022/11/25 05:44:35;;;;;;;22.13;5.05;;;4.60;99.90;;;;;;5100469;28;20106;-71
2022/11/25 05:47:02;;;;;;;19.83;5.00;;;4.60;99.90;;;;;;5082847;28;20054;-71
2022/11/25 05:49:29;;;;;;;19.38;7.10;;;4.70;99.90;;;;;;5100000;28;20324;-71
2022/11/25 05:51:57;;;;;;;19.38;8.60;;;4.80;99.90;;;;;;5099509;28;20077;-71
2022/11/25 05:54:24;;;;;;;22.77;6.32;;;4.90;99.90;;;;;;5099701;28;20016;-71
2022/11/25 05:56:51;;;;;;;22.40;6.38;;;5.00;99.90;;;;;;5099077;28;20048;-71
2022/11/25 05:59:19;;;;;;;15.73;4.82;;;5.00;99.90;;;;;;5098535;28;20024;-71
2022/11/25 06:01:46;;;;;;;15.32;5.05;;;5.10;99.90;;;;;;5080430;28;20078;-71
2022/11/25 06:04:13;;;;;;;13.38;4.43;;;5.20;99.90;;;;;;5098566;28;20052;-71
2022/11/25 06:06:41;;;;;;;23.50;7.75;;;5.20;99.90;;;;;;5098199;28;20028;-71
2022/11/25 06:09:09;;;;;;;14.95;4.20;;;5.30;99.90;;;;;;5080400;28;20122;-71
2022/11/25 06:11:36;;;;;;;14.95;4.13;;;5.40;99.90;;;;;;5079948;28;20369;-71
2022/11/25 06:14:04;;;;;;;10.82;4.65;;;5.40;99.90;;;;;;5098675;28;20020;-71
2022/11/25 06:16:32;;;;;;;19.10;6.00;;;5.40;99.90;;;;;;5080162;28;20020;-71
2022/11/25 06:19:04;;;;;;;17.83;5.80;;;5.50;99.90;;;;;;5098153;28;20012;-71
2022/11/25 06:21:32;;;;;;;25.33;11.00;;;5.60;99.90;;;;;;5098288;28;20321;-71
2022/11/25 06:23:59;;;;;;;11.50;4.60;;;5.60;99.90;;;;;;5097468;28;20362;-71
2022/11/25 06:26:26;;;;;;;12.55;4.30;;;5.60;99.90;;;;;;5098497;28;20054;-71
2022/11/25 06:28:55;;;;;;;10.60;4.47;;;5.70;99.90;;;;;;5097877;28;20016;-71
2022/11/25 06:31:24;;;;;;;18.92;4.47;;;5.70;99.90;;;;;;5079265;28;20024;-71
2022/11/25 06:33:52;;;;;;;22.98;4.90;;;5.70;99.90;;;;;;5079815;28;20073;-71
2022/11/25 06:36:21;;;;;;;13.88;3.63;;;5.70;99.90;;;;;;5080022;28;20044;-71
2022/11/25 06:38:51;;;;;;;16.77;3.58;;;5.70;99.90;;;;;;5079823;28;20104;-71
2022/11/25 06:41:18;;;;;;;14.70;3.75;;;5.70;99.90;;;;;;5079744;28;20438;-71
2022/11/25 06:43:45;;;;;;;7.90;2.78;;;5.80;99.90;;;;;;5097839;28;20024;-71
2022/11/25 06:46:15;;;;;;;11.82;4.03;;;5.70;99.90;;;;;;5079675;28;20081;-71
2022/11/25 06:48:42;;;;;;;11.75;3.88;;;5.80;99.90;;;;;;5096821;28;20028;-71
2022/11/25 06:51:13;;;;;;;13.10;3.90;;;5.70;99.90;;;;;;5079475;28;20024;-71
2022/11/25 06:53:41;;;;;;;10.63;3.67;;;5.70;99.90;;;;;;5098231;28;20404;-71
2022/11/25 06:56:16;;;;;;;19.99;4.13;;;5.70;99.90;;;;;;5023953;28;7199514;-73
2022/11/25 06:58:44;;;;;;;16.80;4.18;;;5.70;99.90;;;;;;5080506;28;20543;-71
2022/11/25 07:01:13;;;;;;;12.77;4.10;;;5.70;99.90;;;;;;5097678;28;20081;-71
2022/11/25 07:03:42;;;;;;;10.88;4.07;;;5.80;99.90;;;;;;5098861;28;20047;-73
2022/11/25 07:06:12;;;;;;;18.90;5.07;;;5.80;99.90;;;;;;5098892;28;20016;-73
2022/11/25 07:08:39;;;;;;;12.77;3.65;;;5.80;99.90;;;;;;5098582;28;20012;-73
2022/11/25 07:11:18;;;;;;;12.85;3.78;;;5.80;99.90;;;;;;5097711;28;20024;-74
2022/11/25 07:13:47;;;;;;;18.50;4.10;;;5.80;99.90;;;;;;5098367;28;20125;-73
2022/11/25 07:16:14;;;;;;;10.50;3.67;;;5.90;99.90;;;;;;5098131;28;20423;-73
2022/11/25 07:18:41;;;;;;;13.93;4.07;;;5.90;99.90;;;;;;5098060;28;20301;-72
2022/11/25 07:21:20;;;;;;;12.63;3.72;;;5.90;99.90;;;;;;5098241;28;20070;-73
2022/11/25 07:23:48;;;;;;;10.13;4.00;;;5.90;99.90;;;;;;5098065;28;20020;-81
2022/11/25 07:26:20;;;;;;;15.32;5.20;;;5.90;99.90;;;;;;5097126;28;20024;-72
2022/11/25 07:28:48;;;;;;;9.90;3.60;;;5.90;99.90;;;;;;5079893;28;20046;-71
2022/11/25 07:31:20;;;;;;;14.30;3.95;;;5.90;99.90;;;;;;5098332;28;20028;-73
2022/11/25 07:33:52;;;;;;;15.95;4.65;;;5.90;99.90;;;;;;5097917;28;20080;-78
2022/11/25 07:36:19;;;;;;;19.67;5.55;;;5.90;99.90;;;;;;5097989;28;20020;-72
2022/11/25 07:38:46;;;;;;;14.13;4.53;;;5.90;99.90;;;;;;5098279;28;20028;-76
2022/11/25 07:41:19;;;;;;;16.88;6.35;;;6.00;99.90;;;;;;5097912;28;20012;-75
2022/11/25 07:43:53;;;;;;;12.63;4.30;;;6.00;99.90;;;;;;5097744;28;20023;-76
2022/11/25 07:46:25;;;;;;;12.93;4.55;;;6.10;99.90;;;;;;5097526;28;20050;-76
2022/11/25 07:48:54;;;;;;;14.65;3.92;;;6.10;99.90;;;;;;5079498;28;20031;-76
2022/11/25 07:51:24;;;;;;;16.60;5.38;;;6.10;99.90;;;;;;5097365;28;20103;-76
2022/11/25 07:53:56;;;;;;;17.60;4.78;;;6.20;99.90;;;;;;5097839;28;20142;-77
2022/11/25 07:56:24;;;;;;;11.00;4.38;;;6.20;99.90;;;;;;5097147;28;20023;-72
2022/11/25 07:58:51;;;;;;;16.90;5.85;;;6.30;99.90;;;;;;5097864;28;20052;-72
2022/11/25 08:01:19;;;;;;;9.50;4.20;;;6.30;99.90;;;;;;5097785;28;20101;-71
2022/11/25 08:03:48;;;;;;;16.75;5.15;;;6.40;99.90;;;;;;5079351;28;20028;-71
2022/11/25 08:06:21;;;;;;;12.25;4.50;;;6.40;99.90;;;;;;5097650;28;20312;-70
2022/11/25 08:08:49;;;;;;;14.05;4.93;;;6.50;99.90;;;;;;5097193;28;20024;-71
2022/11/25 08:11:21;;;;;;;15.48;4.80;;;6.50;99.90;;;;;;5097015;28;20020;-71
2022/11/25 08:13:48;;;;;;;13.38;4.20;;;6.60;99.90;;;;;;5097537;28;20020;-71
2022/11/25 08:16:18;;;;;;;18.95;4.88;;;6.60;99.90;;;;;;5097615;28;20023;-70
2022/11/25 08:18:45;;;;;;;15.90;4.35;;;6.60;99.90;;;;;;5078977;28;20111;-70
2022/11/25 08:21:14;;;;;;;17.50;5.35;;;6.50;99.90;;;;;;5096886;28;20028;-71
2022/11/25 08:23:46;;;;;;;16.48;5.63;;;6.50;99.90;;;;;;5097092;28;20020;-70
2022/11/25 08:26:28;;;;;;;12.68;4.80;;;6.50;99.90;;;;;;5078833;28;20366;-71
2022/11/25 08:28:58;;;;;;;15.48;4.53;;;6.50;99.90;;;;;;5096974;28;20024;-70
2022/11/25 08:31:33;;;;;;;16.77;5.85;;;6.40;99.90;;;;;;5078856;28;20054;-71
2022/11/25 08:34:02;;;;;;;14.00;4.97;;;6.50;99.90;;;;;;5097054;28;20427;-71
2022/11/25 08:36:31;;;;;;;19.95;4.88;;;6.50;99.90;;;;;;5097311;28;20111;-71
2022/11/25 08:39:01;;;;;;;11.27;5.47;;;6.40;99.90;;;;;;5096744;28;20320;-71
2022/11/25 08:41:32;;;;;;;22.05;5.53;;;6.50;99.90;;;;;;5097226;28;20024;-71
2022/11/25 08:44:02;;;;;;;17.42;5.32;;;6.40;99.90;;;;;;5078949;28;20039;-71
2022/11/25 08:46:35;;;;;;;15.70;5.00;;;6.40;99.90;;;;;;5096915;28;20150;-71
2022/11/25 08:49:04;;;;;;;19.13;5.03;;;6.50;99.90;;;;;;5096764;28;20039;-71
2022/11/25 08:51:34;;;;;;;14.73;4.78;;;6.50;99.90;;;;;;5096491;28;20424;-71
2022/11/25 08:54:03;;;;;;;13.15;5.60;;;6.50;99.90;;;;;;5097333;28;20017;-71
2022/11/25 08:56:30;;;;;;;20.65;5.30;;;6.60;99.90;;;;;;5096422;28;20480;-71
2022/11/25 08:58:59;;;;;;;15.80;4.97;;;6.60;99.90;;;;;;5096467;28;20141;-71
2022/11/25 09:01:26;;;;;;;11.10;4.55;;;6.60;99.90;;;;;;5096533;28;20431;-71
2022/11/25 09:03:56;;;;;;;22.50;5.93;;;6.70;99.90;;;;;;5096646;28;20025;-71
2022/11/25 09:06:25;;;;;;;11.25;6.30;;;6.70;99.90;;;;;;5096462;28;20100;-70
2022/11/25 09:08:57;;;;;;;14.63;6.13;;;6.70;99.90;;;;;;5096520;28;20030;-71
2022/11/25 09:11:25;;;;;;;13.25;5.22;;;6.80;99.90;;;;;;5096349;28;20017;-71
2022/11/25 09:13:52;;;;;;;10.73;4.38;;;6.80;99.90;;;;;;5097124;28;20099;-71
2022/11/25 09:16:21;;;;;;;12.75;4.65;;;6.80;99.90;;;;;;5096917;28;20031;-71
2022/11/25 09:18:49;;;;;;;12.98;5.35;;;6.80;99.90;;;;;;5096727;28;20462;-71
2022/11/25 09:21:17;;;;;;;18.88;7.40;;;6.80;99.90;;;;;;5078442;28;20077;-71
2022/11/25 09:23:45;;;;;;;15.50;4.63;;;6.80;99.90;;;;;;5078602;28;20363;-71
2022/11/25 09:26:28;;;;;;;10.73;5.03;;;6.80;99.90;;;;;;5096314;28;20095;-71
2022/11/25 09:28:56;;;;;;;14.68;6.32;;;6.80;99.90;;;;;;5096327;28;20024;-71
2022/11/25 09:31:23;;;;;;;14.95;5.20;;;6.80;99.90;;;;;;5078219;28;20028;-71
2022/11/25 09:33:52;;;;;;;12.88;5.07;;;6.80;99.90;;;;;;5096884;28;20342;-71
2022/11/25 09:36:20;;;;;;;12.27;5.35;;;6.90;99.90;;;;;;5096173;28;20016;-71
2022/11/25 09:38:48;;;;;;;18.15;5.70;;;6.90;99.90;;;;;;5078307;28;20162;-71
2022/11/25 09:48:02;;;;;;;11.70;5.70;;;6.90;99.90;;;;;;5100176;28;20022;-71
2022/11/25 09:50:55;;;;;;;15.55;6.38;;;6.90;99.90;;;;;;5081756;28;20028;-71
2022/11/25 09:53:33;;;;;;;13.88;5.78;;;6.90;99.90;;;;;;5099688;28;20072;-71
2022/11/25 09:56:08;;;;;;;15.75;5.53;;;6.90;99.90;;;;;;5100234;28;20070;-71
2022/11/25 09:58:46;;;;;;;19.38;7.90;;;7.00;99.90;;;;;;5079376;28;20036;-71
2022/11/25 10:01:25;;;;;;;18.05;6.63;;;7.00;99.90;;;;;;5079786;28;20055;-71
2022/11/25 10:04:11;;;;;;;13.45;6.35;;;7.00;99.90;;;;;;5079337;28;20052;-71
2022/11/25 10:06:48;;;;;;;15.80;6.07;;;7.00;99.90;;;;;;5079165;28;20142;-73
2022/11/25 10:09:22;;;;;;;19.55;6.72;;;7.10;99.90;;;;;;5061628;28;20317;-71
2022/11/25 10:11:54;;;;;;;15.95;6.30;;;7.10;99.90;;;;;;5079505;28;20025;-74
2022/11/25 10:14:35;;;;;;;24.65;8.18;;;7.20;99.90;;;;;;5079384;28;20436;-72
2022/11/25 10:17:36;;;;;;;20.20;8.50;;;7.30;99.90;;;;;;5079607;28;20021;-71
2022/11/25 10:20:25;;;;;;;19.27;7.68;;;7.40;99.90;;;;;;5079322;28;20031;-72
2022/11/25 10:23:03;;;;;;;12.77;6.00;;;7.50;99.90;;;;;;5080035;28;20025;-72
2022/11/25 10:25:39;;;;;;;23.70;8.50;;;7.60;99.90;;;;;;5079194;28;20024;-74
2022/11/25 10:28:30;;;;;;;18.95;7.00;;;7.70;99.90;;;;;;5079082;28;20038;-75
2022/11/25 10:31:22;;;;;;;17.38;6.25;;;7.80;99.90;;;;;;5078723;28;20094;-76
2022/11/25 10:33:52;;;;;;;15.85;5.57;;;7.90;99.90;;;;;;5077644;28;20056;-74
2022/11/25 10:36:23;;;;;;;13.63;5.35;;;7.90;99.90;;;;;;5078610;28;20126;-74
2022/11/25 10:39:13;;;;;;;14.57;6.10;;;7.90;99.90;;;;;;5060771;28;20480;-75
2022/11/25 10:41:56;;;;;;;16.48;6.78;;;7.90;99.90;;;;;;5078801;28;20107;-74
2022/11/25 10:44:32;;;;;;;14.68;5.82;;;7.80;99.90;;;;;;5078773;28;20052;-74
2022/11/25 10:47:35;;;;;;;14.90;5.60;;;7.70;99.90;;;;;;5079155;28;20020;-74
2022/11/25 10:50:05;;;;;;;14.43;5.97;;;7.70;99.90;;;;;;5078355;28;20425;-73
2022/11/25 10:52:47;;;;;;;14.50;5.78;;;7.70;99.90;;;;;;5078820;28;20028;-74
2022/11/25 10:55:23;;;;;;;13.43;5.40;;;7.60;99.90;;;;;;5078849;28;20407;-75
2022/11/25 10:57:50;;;;;;;12.32;6.38;;;7.50;99.90;;;;;;5091090;28;20051;-74
2022/11/25 11:00:37;;;;;;;12.18;6.05;;;7.50;99.90;;;;;;5098709;28;20024;-75
2022/11/25 11:03:25;;;;;;;21.00;7.32;;;7.50;99.90;;;;;;5080400;28;20032;-74
2022/11/25 11:05:53;;;;;;;17.08;7.47;;;7.50;99.90;;;;;;5098907;28;20028;-73
2022/11/25 11:08:39;;;;;;;14.55;5.53;;;7.50;99.90;;;;;;5080306;28;20032;-75
2022/11/25 11:11:19;;;;;;;18.20;6.22;;;7.50;99.90;;;;;;5080159;28;20031;-75
2022/11/25 11:13:47;;;;;;;13.18;6.35;;;7.50;99.90;;;;;;5098720;28;20308;-73
2022/11/25 11:16:38;;;;;;;15.80;6.40;;;7.50;99.90;;;;;;5081152;28;20396;-74
2022/11/25 11:19:20;;;;;;;11.30;6.13;;;7.60;99.90;;;;;;5097984;28;20140;-74
2022/11/25 11:21:48;;;;;;;15.35;5.85;;;7.60;99.90;;;;;;5098188;28;20039;-74
2022/11/25 11:24:31;;;;;;;13.73;5.97;;;7.70;99.90;;;;;;5079962;28;20024;-72
2022/11/25 11:27:24;;;;;;;13.45;5.80;;;7.80;99.90;;;;;;5097872;28;20072;-71
2022/11/25 11:30:14;;;;;;;15.30;6.07;;;7.80;99.90;;;;;;5097877;28;20112;-71
2022/11/25 11:32:54;;;;;;;16.00;6.05;;;7.90;99.90;;;;;;5098190;28;20028;-72
2022/11/25 11:36:02;;;;;;;16.15;6.30;;;7.90;99.90;;;;;;5097682;28;20074;-72
2022/11/25 11:38:35;;;;;;;;;;;8.00;99.90;;;;;;5097785;28;20111;-73
2022/11/25 11:41:12;;;;;;;13.32;4.82;;;8.00;99.90;;;;;;5097953;28;19957;-73
2022/11/25 11:43:55;;;;;;;11.13;4.93;;;8.10;99.90;;;;;;5098060;28;20350;-73
2022/11/25 11:46:33;;;;;;;14.77;5.30;;;8.20;99.90;;;;;;5097772;28;20024;-74
2022/11/25 11:49:19;;;;;;;11.82;5.18;;;8.30;99.90;;;;;;5079471;28;20081;-73
2022/11/25 11:52:11;;;;;;;10.57;4.57;;;8.40;99.90;;;;;;5097875;28;20044;-70
2022/11/25 11:54:57;;;;;;;15.93;5.57;;;8.50;99.90;;;;;;5080240;28;20024;-73
2022/11/25 11:57:50;;;;;;;12.52;6.07;;;8.70;99.90;;;;;;5097223;28;20070;-70
2022/11/25 12:00:19;;;;;;;20.35;6.53;;;8.70;99.90;;;;;;5097297;28;20024;-70
2022/11/25 12:03:17;;;;;;;14.13;5.20;;;8.80;99.90;;;;;;5097923;28;20020;-71
2022/11/25 12:05:52;;;;;;;9.73;4.95;;;8.80;99.90;;;;;;5079187;28;20043;-69
2022/11/25 12:08:20;;;;;;;;;;;8.80;99.90;;;;;;5097515;28;20024;-68
2022/11/25 12:11:10;;;;;;;9.25;4.45;;;8.90;99.90;;;;;;5079198;28;19904;-69
2022/11/25 12:14:24;;;;;;;10.27;4.00;;;8.80;99.90;;;;;;5097258;28;20024;-69
2022/11/25 12:17:01;;;;;;;7.97;3.72;;;8.90;99.90;;;;;;5075377;28;20032;-68
2022/11/25 12:19:53;;;;;;;15.30;3.58;;;8.90;99.90;;;;;;5096876;28;20028;-68
2022/11/25 12:22:33;;;;;;;10.52;4.78;;;9.00;99.90;;;;;;5097591;28;20404;-69
2022/11/25 12:25:27;;;;;;;9.75;3.72;;;9.10;99.90;;;;;;5096902;28;20028;-68
2022/11/25 12:28:08;;;;;;;10.00;3.30;;;9.20;99.90;;;;;;5097189;28;20443;-68
2022/11/25 12:30:49;;;;;;;8.20;3.35;;;9.30;99.90;;;;;;5096848;28;20028;-69
2022/11/25 12:33:24;;;;;;;8.55;4.05;;;9.40;99.90;;;;;;5097125;28;20032;-69
2022/11/25 12:36:00;;;;;;;7.20;3.45;;;9.50;99.90;;;;;;5097061;28;20103;-68
2022/11/25 12:38:39;;;;;;;8.07;2.88;;;9.60;99.90;;;;;;5097300;28;20412;-69
2022/11/25 12:41:23;;;;;;;9.65;4.10;;;9.60;99.90;;;;;;5097302;28;20102;-68
2022/11/25 12:44:00;;;;;;;10.05;4.40;;;9.60;99.90;;;;;;5078909;28;20031;-69
2022/11/25 12:46:41;;;;;;;6.72;2.70;;;9.60;99.90;;;;;;5097229;28;20024;-68
2022/11/25 12:49:43;;;;;;;6.47;3.33;;;9.60;99.90;;;;;;5097416;28;20016;-68
2022/11/25 12:52:17;;;;;;;11.45;3.75;;;9.60;99.90;;;;;;5091951;28;20089;-68
2022/11/25 12:55:06;;;;;;;13.63;3.30;;;9.60;99.90;;;;;;5096523;28;20099;-69
2022/11/25 12:57:46;;;;;;;9.65;3.15;;;9.60;99.90;;;;;;5096561;28;20040;-69
2022/11/25 13:00:28;;;;;;;8.18;3.72;;;9.60;99.90;;;;;;5097061;28;20023;-68
2022/11/25 13:03:19;;;;;;;9.85;3.80;;;9.60;99.90;;;;;;5078758;28;20024;-68
2022/11/25 13:05:56;;;;;;;8.63;3.15;;;9.60;99.90;;;;;;5097061;28;20499;-68
2022/11/25 13:08:31;;;;;;;7.78;3.65;;;9.50;99.90;;;;;;5097062;28;20024;-68
2022/11/25 13:11:20;;;;;;;12.30;5.40;;;9.40;99.90;;;;;;5097015;28;20020;-68
2022/11/25 13:14:01;;;;;;;7.75;3.50;;;9.40;99.90;;;;;;5096914;28;20030;-69
2022/11/25 13:16:29;;;;;;;10.57;3.40;;;9.40;99.90;;;;;;5096363;28;20420;-68
2022/11/25 13:18:57;;;;;;;7.50;3.15;;;9.40;99.90;;;;;;5096904;28;20028;-69
2022/11/25 13:21:27;;;;;;;10.65;3.42;;;9.40;99.90;;;;;;5098891;28;20031;-68
2022/11/25 13:23:57;;;;;;;7.78;3.25;;;9.40;99.90;;;;;;5101036;28;20021;-68
2022/11/25 13:26:37;;;;;;;8.15;3.47;;;9.40;99.90;;;;;;5100269;28;20024;-68